EBOS/OST METAR and TAF weather

Enter ICAO airport designator
Station Type Date Time Source
EBOS METAR 2019/08/24 09:50 UTC NOAA

EBOS 240950Z VRB01KT CAVOK 25/15 Q1021 NOSIG


Station Type Date Time Source
EBOS Decoded METAR 2019/08/24 09:50 UTC NOAA

Station name not available
Aug 24, 2019 - 05:50 AM EDT / 2019.08.24 0950 UTC
Wind: Variable at 1 MPH (1 KT):0
Visibility: greater than 7 mile(s):0
Temperature: 77 F (25 C)
Dew Point: 59 F (15 C)
Relative Humidity: 53%
Pressure (altimeter): 30.15 in. Hg (1021 hPa)
ob: EBOS 240950Z VRB01KT CAVOK 25/15 Q1021 NOSIG
cycle: 10

Station Type Date Time Source
EBOS TAF 2019/08/24 06:27 UTC NOAA

TAF EBOS 240500Z 2406/2512 11004KT CAVOK

Example: see airport list